createdAt,value
2019-05-12T00:00:48.346Z,8.70
2019-05-12T00:03:19.043Z,8.50
2019-05-12T00:05:48.775Z,8.60
2019-05-12T00:08:21.908Z,8.60
2019-05-12T00:10:52.394Z,8.70
2019-05-12T00:13:22.498Z,8.90
2019-05-12T00:15:52.513Z,8.80
2019-05-12T00:18:22.769Z,8.60
2019-05-12T00:20:53.181Z,8.70
2019-05-12T00:23:28.700Z,8.60
2019-05-12T00:25:58.822Z,8.70
2019-05-12T00:28:29.293Z,8.70
2019-05-12T00:31:02.095Z,8.70
2019-05-12T00:33:32.376Z,8.70
2019-05-12T00:36:02.445Z,8.50
2019-05-12T00:38:33.521Z,8.60
2019-05-12T00:41:03.804Z,8.60
2019-05-12T00:43:33.726Z,8.50
2019-05-12T00:46:04.627Z,8.60
2019-05-12T00:48:34.894Z,8.50
2019-05-12T00:51:04.979Z,8.50
2019-05-12T00:53:39.606Z,8.60
2019-05-12T00:56:08.524Z,8.80
2019-05-12T00:58:39.037Z,8.70
2019-05-12T01:01:08.859Z,8.60
2019-05-12T01:03:42.438Z,8.70
2019-05-12T01:06:23.395Z,8.60
2019-05-12T01:16:43.308Z,8.60
2019-05-12T01:19:18.666Z,8.30
2019-05-12T01:21:49.040Z,8.40
2019-05-12T01:24:19.088Z,8.50
2019-05-12T01:26:48.719Z,8.50
2019-05-12T01:29:21.302Z,8.50
2019-05-12T01:32:10.248Z,8.40
2019-05-12T01:34:42.064Z,8.40
2019-05-12T01:37:24.329Z,8.50
2019-05-12T01:39:54.432Z,8.40
2019-05-12T01:42:24.573Z,8.50
2019-05-12T01:44:54.389Z,8.50
2019-05-12T01:47:25.059Z,8.10
2019-05-12T01:49:58.195Z,8.10
2019-05-12T01:52:28.952Z,8.40
2019-05-12T01:55:01.016Z,8.30
2019-05-12T02:02:54.962Z,8.10
2019-05-12T02:05:27.671Z,8.20
2019-05-12T02:07:58.367Z,8.30
2019-05-12T02:10:29.004Z,8.30
2019-05-12T02:23:33.838Z,8.30
2019-05-12T02:26:03.639Z,8.10
2019-05-12T02:28:34.141Z,8.00
2019-05-12T02:31:04.570Z,8.10
2019-05-12T02:33:35.701Z,8.20
2019-05-12T02:36:05.663Z,8.40
2019-05-12T02:38:38.965Z,8.10
2019-05-12T02:41:09.325Z,8.20
2019-05-12T02:43:45.661Z,8.20
2019-05-12T02:46:15.771Z,8.20
2019-05-12T02:51:45.586Z,8.20
2019-05-12T02:54:15.748Z,8.30
2019-05-12T02:56:46.967Z,8.10
2019-05-12T02:59:17.738Z,8.00
2019-05-12T03:01:49.411Z,8.00
2019-05-12T03:04:20.392Z,8.20
2019-05-12T03:06:51.165Z,8.10
2019-05-12T03:09:24.350Z,8.00
2019-05-12T03:11:55.601Z,7.90
2019-05-12T03:14:25.577Z,7.90
2019-05-12T03:16:55.475Z,7.90
2019-05-12T03:19:25.730Z,8.00
2019-05-12T03:21:55.872Z,8.00
2019-05-12T03:24:26.356Z,8.10
2019-05-12T03:26:56.119Z,8.00
2019-05-12T03:29:25.977Z,8.10
2019-05-12T03:31:57.165Z,8.00
2019-05-12T03:34:29.230Z,7.90
2019-05-12T03:36:59.697Z,8.00
2019-05-12T03:39:29.813Z,7.80
2019-05-12T03:42:00.279Z,8.10
2019-05-12T03:44:30.218Z,8.10
2019-05-12T03:46:59.960Z,8.20
2019-05-12T03:49:31.022Z,8.20
2019-05-12T03:52:05.081Z,8.20
2019-05-12T03:54:35.041Z,8.10
2019-05-12T03:57:04.807Z,8.20
2019-05-12T03:59:38.943Z,8.10
2019-05-12T04:02:06.771Z,7.90
2019-05-12T04:04:38.035Z,8.10
2019-05-12T04:07:08.999Z,8.00
2019-05-12T04:09:39.128Z,8.20
2019-05-12T04:12:09.170Z,8.10
2019-05-12T04:14:39.283Z,8.00
2019-05-12T04:17:09.642Z,8.20
2019-05-12T04:19:39.412Z,8.10
2019-05-12T04:22:09.969Z,8.00
2019-05-12T04:24:40.485Z,8.20
2019-05-12T04:27:15.199Z,8.00
2019-05-12T04:29:46.099Z,8.00
2019-05-12T04:32:18.607Z,8.10
2019-05-12T04:34:49.312Z,7.90
2019-05-12T04:37:19.613Z,8.10
2019-05-12T04:39:49.924Z,8.10
2019-05-12T04:42:20.508Z,8.00
2019-05-12T04:44:50.705Z,7.90
2019-05-12T04:47:20.315Z,7.90
2019-05-12T04:49:50.935Z,8.00
2019-05-12T04:52:20.791Z,7.90
2019-05-12T04:54:50.736Z,7.90
2019-05-12T04:57:21.038Z,7.90
2019-05-12T04:59:54.097Z,7.90
2019-05-12T05:02:25.080Z,8.00
2019-05-12T05:04:54.691Z,8.20
2019-05-12T05:07:24.481Z,8.20
2019-05-12T05:09:55.041Z,7.90
2019-05-12T05:17:35.747Z,7.90
2019-05-12T05:20:05.666Z,7.60
2019-05-12T05:22:37.965Z,7.90
2019-05-12T05:25:06.405Z,8.00
2019-05-12T05:27:35.675Z,8.00
2019-05-12T05:30:05.290Z,8.10
2019-05-12T05:32:34.611Z,8.00
2019-05-12T05:35:07.496Z,8.10
2019-05-12T05:37:39.559Z,8.00
2019-05-12T05:40:06.572Z,7.90
2019-05-12T05:42:36.929Z,7.70
2019-05-12T05:45:09.940Z,7.70
2019-05-12T05:47:37.376Z,7.70
2019-05-12T05:50:07.151Z,7.80
2019-05-12T05:52:38.784Z,7.80
2019-05-12T05:55:14.698Z,8.00
2019-05-12T05:57:39.911Z,7.90
2019-05-12T06:00:17.485Z,7.90
2019-05-12T06:02:40.780Z,7.90
2019-05-12T06:05:10.108Z,8.10
2019-05-12T06:07:39.413Z,7.90
2019-05-12T06:10:09.868Z,7.80
2019-05-12T06:12:40.534Z,8.00
2019-05-12T06:15:10.490Z,8.20
2019-05-12T06:17:40.603Z,8.20
2019-05-12T06:20:10.121Z,8.10
2019-05-12T06:22:39.612Z,8.10
2019-05-12T06:25:09.280Z,7.90
2019-05-12T06:27:38.655Z,8.00
2019-05-12T06:30:08.952Z,8.00
2019-05-12T06:32:41.289Z,7.80
2019-05-12T06:35:09.337Z,7.80
2019-05-12T06:37:38.665Z,7.70
2019-05-12T06:40:08.434Z,7.80
2019-05-12T06:42:38.178Z,7.50
2019-05-12T06:45:08.983Z,7.60
2019-05-12T06:47:45.354Z,7.70
2019-05-12T06:50:14.616Z,7.90
2019-05-12T06:52:49.172Z,7.80
2019-05-12T06:55:18.663Z,8.10
2019-05-12T06:57:57.020Z,8.30
2019-05-12T07:00:30.929Z,8.10
2019-05-12T07:03:03.961Z,8.00
2019-05-12T07:05:38.559Z,8.10
2019-05-12T07:08:09.968Z,8.00
2019-05-12T07:10:44.230Z,7.80
2019-05-12T07:13:23.256Z,8.00
2019-05-12T07:15:47.848Z,8.10
2019-05-12T07:38:36.370Z,8.60
2019-05-12T07:41:10.950Z,8.90
2019-05-12T07:43:44.341Z,9.10
2019-05-12T07:46:15.699Z,9.20
2019-05-12T07:48:50.806Z,9.10
2019-05-12T07:51:20.452Z,9.30
2019-05-12T07:53:57.205Z,9.50
2019-05-12T07:59:50.984Z,9.10
2019-05-12T08:02:25.551Z,9.20
2019-05-12T08:04:54.443Z,9.20
2019-05-12T08:07:29.872Z,9.20
2019-05-12T08:10:00.730Z,9.10
2019-05-12T08:12:30.739Z,9.00
2019-05-12T08:15:05.405Z,9.20
2019-05-12T08:25:24.767Z,10.30
2019-05-12T08:27:52.033Z,10.40
2019-05-12T08:30:40.516Z,10.00
2019-05-12T08:41:34.055Z,10.20
2019-05-12T08:51:44.371Z,11.20
2019-05-12T08:54:19.328Z,11.40
2019-05-12T08:56:51.176Z,11.60
2019-05-12T08:59:27.288Z,11.70
2019-05-12T09:02:00.389Z,11.90
2019-05-12T09:04:27.751Z,11.70
2019-05-12T09:06:59.915Z,11.80
2019-05-12T09:09:33.721Z,11.30
2019-05-12T09:12:10.557Z,10.60
2019-05-12T09:22:43.404Z,11.40
2019-05-12T09:25:14.411Z,11.70
2019-05-12T09:27:49.441Z,11.80
2019-05-12T09:30:33.703Z,11.30
2019-05-12T09:33:04.987Z,11.20
2019-05-12T09:35:39.697Z,11.40
2019-05-12T09:38:11.337Z,11.60
2019-05-12T09:40:43.802Z,11.80
2019-05-12T09:43:14.452Z,11.70
2019-05-12T09:45:56.114Z,11.80
2019-05-12T09:48:24.726Z,11.90
2019-05-12T09:51:00.298Z,11.90
2019-05-12T09:53:27.692Z,12.20
2019-05-12T09:56:00.011Z,12.30
2019-05-12T09:58:30.184Z,12.10
2019-05-12T10:01:03.798Z,12.00
2019-05-12T10:04:03.943Z,11.80
2019-05-12T10:06:39.838Z,11.60
2019-05-12T10:09:19.823Z,11.80
2019-05-12T10:12:05.370Z,11.90
2019-05-12T10:14:34.649Z,11.80
2019-05-12T10:19:48.454Z,11.80
2019-05-12T10:22:16.582Z,12.20
2019-05-12T10:24:58.353Z,12.30
2019-05-12T10:30:12.640Z,12.20
2019-05-12T10:32:46.653Z,12.70
2019-05-12T10:35:26.171Z,12.60
2019-05-12T10:37:54.413Z,12.70
2019-05-12T10:40:48.285Z,12.30
2019-05-12T10:43:19.553Z,11.50
2019-05-12T10:45:49.946Z,11.40
2019-05-12T10:48:27.484Z,11.90
2019-05-12T10:50:59.467Z,12.50
2019-05-12T10:53:36.234Z,12.80
2019-05-12T10:56:06.692Z,12.80
2019-05-12T10:58:37.178Z,12.10
2019-05-12T11:01:08.587Z,12.40
2019-05-12T11:03:43.053Z,12.20
2019-05-12T11:06:14.040Z,12.30
2019-05-12T11:08:47.301Z,12.60
2019-05-12T11:11:24.021Z,12.30
2019-05-12T11:21:53.664Z,11.90
2019-05-12T11:24:23.916Z,11.80
2019-05-12T11:26:54.601Z,12.20
2019-05-12T11:29:43.282Z,12.50
2019-05-12T11:32:03.791Z,12.60
2019-05-12T11:34:34.827Z,12.50
2019-05-12T11:37:10.975Z,12.00
2019-05-12T11:39:46.869Z,12.00
2019-05-12T11:42:15.310Z,12.20
2019-05-12T11:45:10.379Z,12.70
2019-05-12T11:51:07.078Z,12.40
2019-05-12T11:53:37.509Z,12.10
2019-05-12T11:56:10.350Z,12.30
2019-05-12T11:58:41.174Z,12.30
2019-05-12T12:01:13.492Z,12.50
2019-05-12T12:03:44.063Z,12.70
2019-05-12T12:06:13.759Z,13.10
2019-05-12T12:08:44.160Z,13.10
2019-05-12T12:11:18.841Z,12.40
2019-05-12T12:13:45.005Z,12.10
2019-05-12T12:16:15.335Z,12.20
2019-05-12T12:18:46.694Z,12.00
2019-05-12T12:21:16.416Z,12.40
2019-05-12T12:23:50.128Z,13.00
2019-05-12T12:26:30.933Z,13.10
2019-05-12T12:29:03.189Z,12.50
2019-05-12T12:31:54.367Z,12.30
2019-05-12T12:34:30.271Z,12.00
2019-05-12T12:36:58.114Z,12.20
2019-05-12T12:39:27.726Z,12.30
2019-05-12T12:42:00.324Z,12.80
2019-05-12T12:44:28.516Z,13.10
2019-05-12T12:47:00.342Z,12.20
2019-05-12T12:49:31.078Z,12.20
2019-05-12T12:52:04.761Z,12.70
2019-05-12T12:54:38.182Z,12.60
2019-05-12T12:57:09.951Z,12.60
2019-05-12T12:59:42.857Z,12.90
2019-05-12T13:02:14.071Z,13.20
2019-05-12T13:04:46.047Z,13.50
2019-05-12T13:07:17.840Z,13.90
2019-05-12T13:09:48.037Z,14.20
2019-05-12T13:12:19.435Z,13.60
2019-05-12T13:17:40.017Z,13.60
2019-05-12T13:20:04.288Z,13.80
2019-05-12T13:22:34.337Z,13.80
2019-05-12T13:25:08.434Z,13.90
2019-05-12T13:27:36.945Z,13.70
2019-05-12T13:30:18.931Z,13.20
2019-05-12T13:32:39.130Z,12.90
2019-05-12T13:35:16.212Z,13.00
2019-05-12T13:37:50.376Z,13.50
2019-05-12T13:40:19.873Z,13.90
2019-05-12T13:42:51.354Z,14.20
2019-05-12T13:45:21.701Z,13.80
2019-05-12T13:47:53.391Z,13.50
2019-05-12T13:55:47.449Z,14.00
2019-05-12T13:58:13.560Z,13.70
2019-05-12T14:00:50.803Z,13.50
2019-05-12T14:03:15.105Z,12.90
2019-05-12T14:05:50.363Z,13.10
2019-05-12T14:08:18.315Z,13.20
2019-05-12T14:10:53.776Z,13.40
2019-05-12T14:13:24.571Z,13.60
2019-05-12T14:15:54.772Z,13.80
2019-05-12T14:18:24.719Z,13.80
2019-05-12T14:20:58.501Z,13.90
2019-05-12T14:23:27.346Z,13.60
2019-05-12T14:26:02.232Z,13.30
2019-05-12T14:28:29.771Z,13.20
2019-05-12T14:31:02.782Z,13.20
2019-05-12T14:33:35.970Z,13.20
2019-05-12T14:36:06.536Z,13.30
2019-05-12T14:38:36.463Z,13.20
2019-05-12T14:41:10.400Z,13.40
2019-05-12T14:43:39.842Z,13.80
2019-05-12T14:46:10.520Z,14.20
2019-05-12T14:48:46.461Z,14.30
2019-05-12T14:51:14.128Z,14.00
2019-05-12T14:53:47.948Z,13.80
2019-05-12T14:56:18.065Z,13.80
2019-05-12T14:58:50.221Z,14.00
2019-05-12T15:01:19.472Z,13.70
2019-05-12T15:03:50.447Z,14.10
2019-05-12T15:06:25.661Z,14.50
2019-05-12T15:08:58.854Z,14.60
2019-05-12T15:11:34.285Z,14.20
2019-05-12T15:14:04.324Z,14.00
2019-05-12T15:16:40.276Z,13.70
2019-05-12T15:19:09.588Z,13.50
2019-05-12T15:21:38.467Z,13.60
2019-05-12T15:24:09.140Z,13.60
2019-05-12T15:26:40.139Z,13.80
2019-05-12T15:29:13.491Z,14.10
2019-05-12T15:31:52.774Z,14.50
2019-05-12T15:34:15.977Z,14.90
2019-05-12T15:36:56.144Z,14.80
2019-05-12T15:39:27.254Z,14.20
2019-05-12T15:41:59.423Z,14.00
2019-05-12T15:44:32.318Z,13.90
2019-05-12T15:47:05.276Z,14.10
2019-05-12T15:49:38.614Z,14.30
2019-05-12T15:52:14.031Z,13.90
2019-05-12T15:54:47.168Z,14.40
2019-05-12T15:57:20.979Z,14.70
2019-05-12T15:59:53.971Z,15.20
2019-05-12T16:02:27.018Z,15.60
2019-05-12T16:04:58.107Z,15.70
2019-05-12T16:07:29.546Z,16.10
2019-05-12T16:09:59.715Z,16.50
2019-05-12T16:12:29.493Z,16.00
2019-05-12T16:14:59.444Z,15.80
2019-05-12T16:17:34.197Z,15.80
2019-05-12T16:20:08.986Z,16.10
2019-05-12T16:22:44.337Z,15.90
2019-05-12T16:25:09.721Z,15.60
2019-05-12T16:27:40.188Z,15.20
2019-05-12T16:30:09.749Z,14.60
2019-05-12T16:32:46.449Z,14.90
2019-05-12T16:35:10.699Z,15.50
2019-05-12T16:37:40.714Z,16.20
2019-05-12T16:40:10.557Z,16.40
2019-05-12T16:42:40.791Z,16.70
2019-05-12T16:45:25.660Z,17.20
2019-05-12T17:08:13.886Z,16.90
2019-05-12T17:10:49.106Z,17.00
2019-05-12T17:13:25.893Z,17.20
2019-05-12T17:16:00.250Z,17.50
2019-05-12T17:18:30.758Z,18.20
2019-05-12T17:21:00.735Z,17.30
2019-05-12T17:23:34.994Z,16.20
2019-05-12T17:26:13.999Z,15.50
2019-05-12T17:28:44.913Z,14.70
2019-05-12T17:31:16.007Z,13.60
2019-05-12T17:33:49.361Z,13.60
2019-05-12T17:36:19.859Z,13.40
2019-05-12T17:38:56.158Z,13.10
2019-05-12T17:41:23.620Z,13.00
2019-05-12T17:44:00.876Z,12.90
2019-05-12T17:46:26.087Z,12.90
2019-05-12T17:48:59.041Z,12.90
2019-05-12T17:51:38.266Z,12.90
2019-05-12T17:57:09.466Z,13.00
2019-05-12T17:59:59.704Z,12.90
2019-05-12T18:02:39.792Z,12.80
2019-05-12T18:05:16.423Z,12.90
2019-05-12T18:08:35.827Z,12.60
2019-05-12T18:11:03.780Z,12.50
2019-05-12T18:13:41.849Z,12.50
2019-05-12T18:16:22.011Z,12.40
2019-05-12T18:18:50.083Z,12.30
2019-05-12T18:21:54.817Z,12.20
2019-05-12T18:24:41.004Z,12.00
2019-05-12T18:27:10.562Z,12.10
2019-05-12T18:41:03.525Z,11.60
2019-05-12T18:43:44.874Z,11.50
2019-05-12T18:52:09.143Z,11.60
2019-05-12T18:57:39.467Z,11.30
2019-05-12T19:00:03.768Z,11.20
2019-05-12T19:02:45.747Z,11.10
2019-05-12T19:09:05.791Z,11.00
2019-05-12T19:12:04.990Z,10.90
2019-05-12T19:14:51.957Z,10.80
2019-05-12T19:17:30.998Z,10.80
2019-05-12T19:25:35.313Z,10.70
2019-05-12T19:28:19.564Z,10.60
2019-05-12T19:33:56.719Z,10.60
2019-05-12T19:36:45.045Z,10.50
2019-05-12T19:39:18.148Z,10.50
2019-05-12T19:42:10.215Z,10.50
2019-05-12T19:45:36.203Z,10.50
2019-05-12T19:48:24.841Z,10.30
2019-05-12T19:56:37.865Z,10.10
2019-05-12T19:59:11.408Z,10.10
2019-05-12T20:09:54.583Z,10.00
2019-05-12T20:12:20.957Z,9.90
2019-05-12T20:20:59.994Z,9.80
2019-05-12T20:23:29.831Z,9.60
2019-05-12T20:26:04.138Z,9.70
2019-05-12T20:34:10.721Z,9.70
2019-05-12T20:36:39.636Z,9.60
2019-05-12T20:39:21.622Z,9.70
2019-05-12T20:41:54.490Z,9.60
2019-05-12T20:44:23.954Z,9.60
2019-05-12T20:46:55.956Z,9.50
2019-05-12T20:49:27.952Z,9.20
2019-05-12T20:52:04.567Z,9.20
2019-05-12T20:54:33.665Z,9.40
2019-05-12T20:57:07.958Z,9.40
2019-05-12T20:59:35.433Z,9.30
2019-05-12T21:02:06.399Z,9.10
2019-05-12T21:04:37.965Z,9.00
2019-05-12T21:07:14.052Z,9.10
2019-05-12T21:09:44.017Z,9.20
2019-05-12T21:12:13.809Z,9.20
2019-05-12T21:14:51.379Z,9.10
2019-05-12T21:17:18.426Z,9.10
2019-05-12T21:19:57.046Z,8.90
2019-05-12T21:22:20.453Z,8.90
2019-05-12T21:24:53.251Z,8.80
2019-05-12T21:27:23.003Z,8.80
2019-05-12T21:29:54.109Z,8.90
2019-05-12T21:32:26.782Z,8.70
2019-05-12T21:34:57.700Z,8.60
2019-05-12T21:37:28.465Z,8.70
2019-05-12T21:39:58.512Z,8.60
2019-05-12T21:42:28.491Z,8.70
2019-05-12T21:44:58.551Z,8.70
2019-05-12T21:47:34.050Z,8.70
2019-05-12T21:50:03.536Z,8.80
2019-05-12T21:52:39.066Z,8.60
2019-05-12T21:55:12.913Z,8.60
2019-05-12T21:57:36.911Z,8.50
2019-05-12T22:00:15.928Z,8.70
2019-05-12T22:02:44.346Z,8.80
2019-05-12T22:05:23.965Z,8.70
2019-05-12T22:07:51.072Z,8.80
2019-05-12T22:10:26.743Z,8.70
2019-05-12T22:13:00.598Z,8.80
2019-05-12T22:15:35.678Z,8.70
2019-05-12T22:20:52.351Z,8.60
2019-05-12T22:23:24.736Z,8.70
2019-05-12T22:25:59.957Z,8.40
2019-05-12T22:28:28.120Z,8.40
2019-05-12T22:30:58.367Z,8.30
2019-05-12T22:33:28.620Z,8.30
2019-05-12T22:36:05.097Z,8.20
2019-05-12T22:38:30.308Z,8.30
2019-05-12T22:41:04.132Z,8.30
2019-05-12T22:43:40.864Z,8.20
2019-05-12T22:46:04.690Z,8.50
2019-05-12T22:48:39.558Z,8.30
2019-05-12T22:51:17.751Z,8.20
2019-05-12T22:53:45.314Z,8.20
2019-05-12T22:56:17.942Z,8.30
2019-05-12T22:58:51.843Z,8.40
2019-05-12T23:01:18.610Z,8.30
2019-05-12T23:03:51.445Z,8.10
2019-05-12T23:06:25.120Z,8.10
2019-05-12T23:08:55.407Z,8.30
2019-05-12T23:11:32.016Z,8.20
2019-05-12T23:13:57.649Z,8.20
2019-05-12T23:16:29.398Z,8.10
2019-05-12T23:19:01.246Z,8.10
2019-05-12T23:21:32.865Z,8.10
2019-05-12T23:24:08.173Z,8.00
2019-05-12T23:26:41.761Z,8.10
2019-05-12T23:29:10.423Z,8.00
2019-05-12T23:31:40.636Z,8.00
2019-05-12T23:34:12.347Z,8.00
2019-05-12T23:36:43.975Z,7.80
2019-05-12T23:39:14.517Z,8.00
2019-05-12T23:41:44.365Z,8.00
2019-05-12T23:44:24.496Z,7.80
2019-05-12T23:47:00.988Z,7.90
2019-05-12T23:49:33.693Z,7.70
2019-05-12T23:52:03.937Z,7.80
2019-05-12T23:54:35.728Z,7.80
2019-05-12T23:57:07.415Z,7.80
2019-05-12T23:59:37.486Z,7.80
